createdAt,value
2018-04-12T07:46:34.451Z,7620.00
2018-04-12T07:47:34.771Z,8012.00
2018-04-12T07:48:35.155Z,7932.00
2018-04-12T07:49:34.335Z,9664.00
2018-04-12T07:50:34.330Z,8524.00
2018-04-12T07:51:34.813Z,9052.00
2018-04-12T07:52:34.261Z,7360.00
2018-04-12T07:53:34.240Z,9196.00
2018-04-12T07:54:34.258Z,9756.00
2018-04-12T07:55:34.244Z,8356.00
2018-04-12T07:56:34.261Z,7344.00
2018-04-12T07:57:34.293Z,5792.00
2018-04-12T07:58:34.251Z,6688.00
2018-04-12T07:59:34.256Z,7132.00
2018-04-12T08:00:34.260Z,8172.00
2018-04-12T08:01:34.261Z,7388.00
2018-04-12T08:02:34.254Z,8328.00
2018-04-12T08:03:34.285Z,7008.00
2018-04-12T08:04:34.264Z,8136.00
2018-04-12T08:05:34.270Z,8236.00
2018-04-12T08:06:35.162Z,7892.00
2018-04-12T08:07:34.315Z,9292.00
2018-04-12T08:08:34.319Z,10352.00
2018-04-12T08:09:34.295Z,7828.00
2018-04-12T08:10:34.340Z,8460.00
2018-04-12T08:11:34.315Z,8284.00
2018-04-12T08:14:54.404Z,7044.00
2018-04-12T08:15:44.688Z,6460.00
2018-04-12T08:16:54.096Z,7588.00
2018-04-12T08:18:38.108Z,7400.00
2018-04-12T08:19:38.064Z,7708.00
2018-04-12T08:20:38.061Z,9176.00
2018-04-12T08:21:38.043Z,10064.00
2018-04-12T08:22:38.065Z,9664.00
2018-04-12T08:23:38.067Z,12760.00
2018-04-12T08:24:38.077Z,12140.00
2018-04-12T08:25:38.062Z,11316.00
2018-04-12T08:26:38.058Z,8572.00
2018-04-12T08:27:38.085Z,9604.00
2018-04-12T08:28:38.068Z,8808.00
2018-04-12T08:29:38.091Z,9184.00
2018-04-12T08:30:38.126Z,13640.00
2018-04-12T08:31:38.087Z,16256.00
2018-04-12T08:32:39.034Z,10968.00
2018-04-12T08:33:38.078Z,10496.00
2018-04-12T08:34:38.110Z,16640.00
2018-04-12T08:35:39.033Z,14016.00
2018-04-12T08:36:38.089Z,14712.00
2018-04-12T08:37:38.113Z,18368.00
2018-04-12T08:38:38.105Z,19424.00
2018-04-12T08:39:38.134Z,15436.00
2018-04-12T08:40:38.124Z,11024.00
2018-04-12T08:41:38.133Z,9136.00
2018-04-12T08:42:38.110Z,8108.00
2018-04-12T08:43:39.042Z,7576.00
2018-04-12T08:44:38.116Z,7020.00
2018-04-12T08:45:38.132Z,6384.00
2018-04-12T08:46:38.136Z,5812.00
2018-04-12T08:47:38.141Z,5332.00
2018-04-12T08:48:38.142Z,5112.00
2018-04-12T08:49:38.129Z,4884.00
2018-04-12T08:50:38.146Z,4760.00
2018-04-12T08:51:38.150Z,4832.00
2018-04-12T08:52:39.039Z,4984.00
2018-04-12T08:53:38.150Z,5140.00
2018-04-12T08:54:38.138Z,5180.00
2018-04-12T08:55:38.186Z,5216.00
2018-04-12T08:56:38.192Z,5200.00
2018-04-12T08:57:38.161Z,5100.00
2018-04-12T08:58:38.159Z,4984.00
2018-04-12T08:59:38.176Z,5000.00
2018-04-12T09:00:38.228Z,5132.00
2018-04-12T09:01:38.169Z,5224.00
2018-04-12T09:02:38.280Z,5488.00
2018-04-12T09:03:38.175Z,5692.00
2018-04-12T09:04:38.175Z,5772.00
2018-04-12T09:05:38.180Z,5856.00
2018-04-12T09:06:38.188Z,6000.00
2018-04-12T09:07:39.543Z,6164.00
2018-04-12T09:08:38.186Z,6400.00
2018-04-12T09:09:38.216Z,6932.00
2018-04-12T09:10:38.197Z,7752.00
2018-04-12T09:11:38.202Z,8880.00
2018-04-12T09:12:38.199Z,9832.00
2018-04-12T09:13:38.211Z,10792.00
2018-04-12T09:14:38.244Z,11652.00
2018-04-12T09:15:38.232Z,12336.00
2018-04-12T09:16:38.228Z,10296.00
2018-04-12T09:17:38.216Z,9572.00
2018-04-12T09:18:38.235Z,8992.00
2018-04-12T09:19:38.293Z,8544.00
2018-04-12T09:20:38.232Z,8312.00
2018-04-12T09:21:38.222Z,8784.00
2018-04-12T09:22:38.224Z,11236.00
2018-04-12T09:23:39.051Z,20128.00
2018-04-12T09:24:38.229Z,22048.00
2018-04-12T09:25:38.303Z,24352.00
2018-04-12T09:26:38.231Z,26880.00
2018-04-12T09:27:38.248Z,34528.00
2018-04-12T09:28:38.244Z,37504.00
2018-04-12T09:29:38.287Z,41952.00
2018-04-12T09:30:38.248Z,34912.00
2018-04-12T09:31:38.274Z,34464.00
2018-04-12T09:32:38.304Z,40640.00
2018-04-12T09:33:38.270Z,38048.00
2018-04-12T09:34:38.303Z,30400.00
2018-04-12T09:35:38.284Z,31008.00
2018-04-12T09:36:38.274Z,17536.00
2018-04-12T09:37:38.300Z,17728.00
2018-04-12T09:38:38.267Z,20544.00
2018-04-12T09:39:38.299Z,25536.00
2018-04-12T09:40:38.284Z,25280.00
2018-04-12T09:41:38.296Z,27680.00
2018-04-12T09:42:38.302Z,27744.00
2018-04-12T09:43:38.306Z,27616.00
2018-04-12T09:44:38.337Z,29440.00
2018-04-12T09:45:38.322Z,27648.00
2018-04-12T09:46:39.060Z,24160.00
2018-04-12T09:47:38.362Z,21472.00
2018-04-12T09:48:38.353Z,18272.00
2018-04-12T09:49:39.074Z,15088.00
2018-04-12T09:50:38.334Z,14776.00
2018-04-12T09:51:38.344Z,17632.00
2018-04-12T09:52:38.404Z,16608.00
2018-04-12T09:53:40.206Z,15480.00
2018-04-12T09:54:38.419Z,16864.00
2018-04-12T09:55:38.364Z,19232.00
2018-04-12T09:56:38.388Z,20224.00
2018-04-12T09:57:38.402Z,26432.00
2018-04-12T09:58:38.400Z,27296.00
2018-04-12T09:59:38.422Z,24576.00
2018-04-12T10:00:38.397Z,28704.00
2018-04-12T10:01:38.390Z,29696.00
2018-04-12T10:02:38.412Z,29376.00
2018-04-12T10:03:38.447Z,31232.00
2018-04-12T10:04:38.418Z,32928.00
2018-04-12T10:05:38.428Z,31648.00
2018-04-12T10:06:38.484Z,33376.00
2018-04-12T10:07:38.949Z,35424.00
2018-04-12T10:08:38.451Z,37952.00
2018-04-12T10:09:38.457Z,39808.00
2018-04-12T10:10:38.445Z,39904.00
2018-04-12T10:11:38.509Z,40480.00
2018-04-12T10:12:38.455Z,43744.00
2018-04-12T10:13:38.547Z,47616.00
2018-04-12T10:14:38.460Z,49440.00
2018-04-12T10:15:38.472Z,49184.00
2018-04-12T10:16:38.495Z,39104.00
2018-04-12T10:17:38.515Z,30656.00
2018-04-12T10:18:38.492Z,27008.00
2018-04-12T10:19:38.697Z,23488.00
2018-04-12T10:20:38.501Z,21408.00
2018-04-12T10:21:38.525Z,19488.00
2018-04-12T10:22:38.532Z,25088.00
2018-04-12T10:23:38.525Z,21664.00
2018-04-12T10:24:38.536Z,21600.00
2018-04-12T10:25:38.543Z,21920.00
2018-04-12T10:26:38.549Z,42272.00
2018-04-12T10:27:38.569Z,41568.00
2018-04-12T10:28:38.727Z,27936.00
2018-04-12T10:29:38.568Z,35776.00
2018-04-12T10:30:39.085Z,42464.00
2018-04-12T10:31:38.585Z,51040.00
2018-04-12T10:32:38.589Z,58272.00
2018-04-12T10:33:38.607Z,63168.00
2018-04-12T10:34:38.635Z,62592.00
2018-04-12T10:35:38.612Z,61152.00
2018-04-12T10:36:38.619Z,67712.00
2018-04-12T10:37:38.657Z,65344.00
2018-04-12T10:38:38.695Z,77216.00
2018-04-12T10:39:38.644Z,77312.00
2018-04-12T10:40:38.730Z,41792.00
2018-04-12T10:41:38.730Z,29472.00
2018-04-12T10:42:38.684Z,31712.00
2018-04-12T10:43:38.698Z,30464.00
2018-04-12T10:44:38.695Z,40384.00
2018-04-12T10:45:38.718Z,70560.00
2018-04-12T10:46:38.728Z,66304.00
2018-04-12T10:47:38.816Z,83840.00
2018-04-12T10:48:38.827Z,72576.00
2018-04-12T10:49:38.797Z,75168.00
2018-04-12T10:50:38.762Z,55872.00
2018-04-12T10:51:38.778Z,39168.00
2018-04-12T10:52:38.781Z,76064.00
2018-04-12T10:53:38.795Z,57760.00
2018-04-12T10:54:38.781Z,45984.00
2018-04-12T10:55:38.809Z,44704.00
2018-04-12T10:56:38.807Z,75360.00
2018-04-12T10:57:38.820Z,80544.00
2018-04-12T10:58:38.819Z,80928.00
2018-04-12T10:59:38.829Z,63328.00
2018-04-12T11:00:39.598Z,74272.00
2018-04-12T11:01:38.855Z,75680.00
2018-04-12T11:02:38.870Z,40096.00
2018-04-12T11:03:38.881Z,62400.00
2018-04-12T11:04:38.896Z,61888.00
2018-04-12T11:05:38.896Z,52544.00
2018-04-12T11:06:38.899Z,64512.00
2018-04-12T11:07:38.966Z,61088.00
2018-04-12T11:08:38.990Z,62304.00
2018-04-12T11:09:38.977Z,59360.00
2018-04-12T11:10:38.939Z,51296.00
2018-04-12T11:11:39.013Z,21344.00
2018-04-12T11:12:38.994Z,16108.00
2018-04-12T11:13:39.042Z,13608.00
2018-04-12T11:14:39.017Z,15564.00
2018-04-12T11:15:39.028Z,13660.00
2018-04-12T11:16:39.070Z,12756.00
2018-04-12T11:17:39.057Z,12200.00
2018-04-12T11:18:39.072Z,13364.00
2018-04-12T11:19:39.042Z,13680.00
2018-04-12T11:20:39.075Z,13632.00
2018-04-12T11:21:39.065Z,14120.00
2018-04-12T11:22:39.086Z,14724.00
2018-04-12T11:23:39.117Z,14168.00
2018-04-12T11:24:39.101Z,13028.00
2018-04-12T11:25:39.117Z,13928.00
2018-04-12T11:26:39.456Z,12716.00
2018-04-12T11:27:39.123Z,13348.00
2018-04-12T11:28:39.157Z,14480.00
2018-04-12T11:29:39.122Z,14940.00
2018-04-12T11:30:39.176Z,15448.00
2018-04-12T11:31:39.183Z,16016.00
2018-04-12T11:32:39.146Z,15696.00
2018-04-12T11:33:39.147Z,14964.00
2018-04-12T11:34:39.157Z,14128.00
2018-04-12T11:35:39.160Z,13556.00
2018-04-12T11:36:39.176Z,13156.00
2018-04-12T11:37:39.168Z,12504.00
2018-04-12T11:38:39.169Z,12464.00
2018-04-12T11:39:40.121Z,12436.00
2018-04-12T11:40:39.207Z,11480.00
2018-04-12T11:41:39.217Z,10524.00
2018-04-12T11:42:40.125Z,9796.00
2018-04-12T11:43:39.206Z,9704.00
2018-04-12T11:44:39.269Z,9652.00
2018-04-12T11:45:39.239Z,9848.00
2018-04-12T11:46:40.130Z,9896.00
2018-04-12T11:47:39.275Z,9264.00
2018-04-12T11:48:39.273Z,9236.00
2018-04-12T11:49:39.318Z,9848.00
2018-04-12T11:50:39.275Z,9844.00
2018-04-12T11:51:39.306Z,9836.00
2018-04-12T11:52:40.132Z,9624.00
2018-04-12T11:53:39.264Z,9468.00
2018-04-12T11:54:39.265Z,9892.00
2018-04-12T11:55:39.327Z,10760.00
2018-04-12T11:56:40.170Z,10620.00
2018-04-12T11:57:39.450Z,10708.00
2018-04-12T11:58:39.406Z,10792.00
2018-04-12T11:59:39.343Z,11252.00
2018-04-12T12:00:39.369Z,11568.00
2018-04-12T12:01:39.398Z,11520.00
2018-04-12T12:02:39.328Z,11364.00
2018-04-12T12:03:39.329Z,12044.00
2018-04-12T12:04:40.229Z,12556.00
2018-04-12T12:05:39.329Z,13064.00
2018-04-12T12:06:39.321Z,13628.00
2018-04-12T12:07:39.358Z,13096.00
2018-04-12T12:08:39.337Z,12732.00
2018-04-12T12:09:41.213Z,12468.00
2018-04-12T12:10:39.344Z,11992.00
2018-04-12T12:11:39.347Z,11904.00
2018-04-12T12:12:39.350Z,11936.00
2018-04-12T12:13:40.180Z,12100.00
2018-04-12T12:14:39.388Z,11984.00
2018-04-12T12:15:39.373Z,11052.00
2018-04-12T12:16:39.380Z,10928.00
2018-04-12T12:17:39.380Z,10636.00
2018-04-12T12:18:39.376Z,9224.00
2018-04-12T12:19:39.396Z,7788.00
2018-04-12T12:20:39.455Z,8200.00
2018-04-12T12:21:39.390Z,9716.00
2018-04-12T12:22:39.390Z,10408.00
2018-04-12T12:23:39.415Z,9732.00
2018-04-12T12:24:39.400Z,8824.00
2018-04-12T12:25:39.411Z,8956.00
2018-04-12T12:26:39.419Z,8716.00
2018-04-12T12:27:39.437Z,9396.00
2018-04-12T12:28:39.456Z,8852.00
2018-04-12T12:29:39.427Z,9428.00
2018-04-12T12:30:39.551Z,9312.00
2018-04-12T12:31:39.450Z,9724.00
2018-04-12T12:32:39.437Z,10216.00
2018-04-12T12:33:39.458Z,10080.00
2018-04-12T12:34:39.458Z,8212.00
2018-04-12T12:35:39.454Z,8148.00
2018-04-12T12:36:39.458Z,8600.00
2018-04-12T12:37:39.474Z,9000.00
2018-04-12T12:38:39.466Z,9008.00
2018-04-12T12:39:39.481Z,9208.00
2018-04-12T12:40:39.508Z,10036.00
2018-04-12T12:41:39.493Z,9452.00
2018-04-12T12:42:39.482Z,7056.00
2018-04-12T12:43:39.509Z,6188.00
2018-04-12T12:44:39.496Z,6056.00
2018-04-12T12:45:39.508Z,6248.00
2018-04-12T12:46:39.511Z,6628.00
2018-04-12T12:47:39.519Z,6592.00
2018-04-12T12:48:39.515Z,6316.00
2018-04-12T12:49:39.518Z,6196.00
2018-04-12T12:50:39.539Z,5968.00
2018-04-12T12:51:39.644Z,5600.00
2018-04-12T12:52:40.156Z,5532.00
2018-04-12T12:53:40.154Z,5648.00
2018-04-12T12:54:39.544Z,5368.00
2018-04-12T12:55:39.546Z,5172.00
2018-04-12T12:56:39.545Z,5236.00
2018-04-12T12:57:39.582Z,5364.00
2018-04-12T12:58:39.571Z,5396.00
2018-04-12T12:59:39.555Z,5112.00
2018-04-12T13:00:39.612Z,5056.00
2018-04-12T13:01:39.601Z,4980.00
2018-04-12T13:02:39.572Z,4840.00
2018-04-12T13:03:39.596Z,4752.00
2018-04-12T13:04:59.228Z,4680.00
2018-04-12T13:05:40.188Z,4576.00
2018-04-12T13:06:42.667Z,4516.00
2018-04-12T13:07:40.169Z,4508.00
2018-04-12T13:08:40.190Z,4472.00
2018-04-12T13:09:40.176Z,4516.00
2018-04-12T13:10:39.605Z,4592.00
2018-04-12T13:11:39.609Z,4636.00
2018-04-12T13:12:39.611Z,4652.00
2018-04-12T13:13:39.621Z,4604.00
2018-04-12T13:14:40.161Z,4536.00
2018-04-12T13:15:39.617Z,4492.00
2018-04-12T13:16:39.638Z,4412.00
2018-04-12T13:17:39.638Z,4336.00
2018-04-12T13:18:39.642Z,4312.00
2018-04-12T13:19:39.633Z,4292.00
2018-04-12T13:20:40.169Z,4252.00
2018-04-12T13:21:39.979Z,4284.00
2018-04-12T13:22:39.649Z,4364.00
2018-04-12T13:23:39.653Z,4448.00
2018-04-12T13:24:39.646Z,4544.00
2018-04-12T13:25:39.656Z,4608.00
2018-04-12T13:26:41.457Z,4504.00
2018-04-12T13:27:39.696Z,4472.00
2018-04-12T13:28:39.684Z,4436.00
2018-04-12T13:29:39.678Z,4476.00
2018-04-12T13:30:39.688Z,4512.00
2018-04-12T13:31:39.699Z,4476.00
2018-04-12T13:32:39.708Z,4548.00
2018-04-12T13:33:39.712Z,4620.00
2018-04-12T13:34:39.722Z,4616.00
2018-04-12T13:35:44.207Z,4596.00
2018-04-12T13:36:43.171Z,4444.00
2018-04-12T13:37:41.178Z,4364.00
2018-04-12T13:38:39.731Z,4264.00
2018-04-12T13:39:39.712Z,4292.00
2018-04-12T13:40:39.711Z,4284.00
2018-04-12T13:41:39.775Z,4212.00
2018-04-12T13:42:39.723Z,4200.00
2018-04-12T13:43:39.728Z,4116.00
2018-04-12T13:44:39.737Z,4048.00
2018-04-12T13:45:39.746Z,4020.00
2018-04-12T13:46:39.733Z,3984.00
2018-04-12T13:47:39.745Z,3940.00
2018-04-12T13:48:39.764Z,4048.00
2018-04-12T13:49:39.772Z,4124.00
2018-04-12T13:50:39.751Z,4112.00
2018-04-12T13:51:39.754Z,4100.00
2018-04-12T13:52:39.793Z,4116.00
2018-04-12T13:53:39.764Z,4100.00
2018-04-12T13:54:39.769Z,4132.00
2018-04-12T13:55:39.784Z,4208.00
2018-04-12T13:56:39.829Z,4328.00
2018-04-12T13:57:39.786Z,4416.00
2018-04-12T13:58:39.777Z,4468.00
2018-04-12T13:59:39.785Z,4500.00
2018-04-12T14:00:39.838Z,4472.00
2018-04-12T14:01:39.800Z,4376.00
2018-04-12T14:02:39.822Z,4284.00
2018-04-12T14:03:39.793Z,4108.00
2018-04-12T14:04:39.900Z,3736.00
2018-04-12T14:05:39.800Z,3720.00
2018-04-12T14:06:39.822Z,3536.00
2018-04-12T14:07:39.812Z,3504.00
2018-04-12T14:08:40.681Z,3564.00
2018-04-12T14:09:39.839Z,3412.00
2018-04-12T14:10:39.846Z,3436.00
2018-04-12T14:11:40.682Z,3768.00
2018-04-12T14:12:39.841Z,4080.00
2018-04-12T14:13:39.836Z,4324.00
2018-04-12T14:14:39.831Z,4352.00
2018-04-12T14:15:39.852Z,4456.00
2018-04-12T14:16:39.857Z,4872.00
2018-04-12T14:17:39.851Z,5224.00
2018-04-12T14:18:39.841Z,5572.00
2018-04-12T14:19:39.850Z,5872.00
2018-04-12T14:20:39.856Z,6056.00
2018-04-12T14:21:39.862Z,5968.00
2018-04-12T14:22:39.869Z,5956.00
2018-04-12T14:23:39.871Z,5828.00
2018-04-12T14:24:39.879Z,5844.00
2018-04-12T14:25:39.910Z,5844.00
2018-04-12T14:26:39.875Z,5944.00
2018-04-12T14:27:39.874Z,6004.00
2018-04-12T14:28:39.884Z,6124.00
2018-04-12T14:29:39.958Z,6260.00
2018-04-12T14:30:39.905Z,6316.00
2018-04-12T14:31:40.014Z,6276.00
2018-04-12T14:32:39.899Z,6264.00
2018-04-12T14:33:39.936Z,6176.00
2018-04-12T14:34:40.020Z,6092.00
2018-04-12T14:35:39.964Z,6228.00
2018-04-12T14:36:39.922Z,6476.00
2018-04-12T14:37:39.925Z,6524.00
2018-04-12T14:38:39.934Z,6584.00
2018-04-12T14:39:39.946Z,6488.00
2018-04-12T14:40:39.951Z,6216.00
2018-04-12T14:41:40.696Z,6016.00
2018-04-12T14:42:39.943Z,6148.00
2018-04-12T14:43:39.945Z,6304.00
2018-04-12T14:44:39.958Z,6360.00
2018-04-12T14:45:39.954Z,6344.00
2018-04-12T14:46:40.086Z,6460.00
2018-04-12T14:47:40.010Z,6528.00
2018-04-12T14:48:40.696Z,6444.00
2018-04-12T14:49:39.963Z,6292.00
2018-04-12T14:50:39.975Z,6248.00
2018-04-12T14:51:39.979Z,6056.00
2018-04-12T14:52:40.716Z,6044.00
2018-04-12T14:53:39.988Z,6140.00
2018-04-12T14:54:39.989Z,6108.00
2018-04-12T14:55:39.992Z,6280.00
2018-04-12T14:56:40.702Z,5880.00
2018-04-12T14:57:40.029Z,5628.00
2018-04-12T14:58:40.002Z,5632.00
2018-04-12T14:59:40.025Z,5632.00
2018-04-12T15:00:40.082Z,5356.00
2018-04-12T15:01:40.019Z,5372.00
2018-04-12T15:02:40.031Z,5444.00
2018-04-12T15:03:40.024Z,5576.00
2018-04-12T15:04:40.028Z,5720.00
2018-04-12T15:05:40.025Z,5912.00
2018-04-12T15:06:40.035Z,6088.00
2018-04-12T15:07:40.057Z,6300.00
2018-04-12T15:08:40.055Z,6460.00
2018-04-12T15:09:40.718Z,6364.00
2018-04-12T15:10:40.057Z,5980.00
2018-04-12T15:11:40.042Z,6212.00
2018-04-12T15:12:40.067Z,5960.00
2018-04-12T15:13:40.077Z,5752.00
2018-04-12T15:14:40.071Z,5684.00
2018-04-12T15:15:40.118Z,5724.00
2018-04-12T15:16:40.067Z,5716.00
2018-04-12T15:17:40.077Z,5684.00
2018-04-12T15:18:40.085Z,5640.00
2018-04-12T15:19:40.078Z,5596.00
2018-04-12T15:20:40.107Z,5496.00
2018-04-12T15:21:40.091Z,5356.00
2018-04-12T15:22:40.135Z,5188.00
2018-04-12T15:23:40.101Z,4920.00
2018-04-12T15:24:40.108Z,4596.00
2018-04-12T15:25:40.154Z,4264.00
2018-04-12T15:26:40.146Z,3980.00
2018-04-12T15:27:40.128Z,3724.00
2018-04-12T15:28:40.165Z,3472.00
2018-04-12T15:29:40.123Z,3220.00
2018-04-12T15:30:40.712Z,3000.00
2018-04-12T15:31:40.126Z,2832.00
2018-04-12T15:32:40.136Z,2700.00
2018-04-12T15:33:40.139Z,2608.00
2018-04-12T15:34:40.139Z,2524.00
2018-04-12T15:35:40.153Z,2448.00
2018-04-12T15:36:40.191Z,2404.00
2018-04-12T15:37:40.176Z,2368.00
2018-04-12T15:38:40.161Z,2384.00
2018-04-12T15:39:40.166Z,2452.00
2018-04-12T15:40:40.176Z,2520.00
2018-04-12T15:41:40.174Z,2536.00
2018-04-12T15:42:40.175Z,2480.00
2018-04-12T15:43:40.174Z,2384.00
2018-04-12T15:44:40.177Z,2272.00
2018-04-12T15:45:40.243Z,2184.00
2018-04-12T15:46:40.267Z,2124.00
2018-04-12T15:47:40.201Z,2100.00
2018-04-12T15:48:40.202Z,2092.00
2018-04-12T15:49:40.227Z,2088.00
2018-04-12T15:50:40.231Z,2056.00
2018-04-12T15:51:40.209Z,1996.00
2018-04-12T15:52:40.216Z,1916.00
2018-04-12T15:53:40.223Z,1828.00
2018-04-12T15:54:40.225Z,1752.00
2018-04-12T15:55:40.222Z,1668.00
2018-04-12T15:56:40.230Z,1600.00
2018-04-12T15:57:40.296Z,1532.00
2018-04-12T15:58:40.229Z,1472.00
2018-04-12T15:59:40.236Z,1408.00
2018-04-12T16:00:40.246Z,1356.00
2018-04-12T16:01:40.244Z,1320.00
2018-04-12T16:02:40.249Z,1304.00
2018-04-12T16:03:40.322Z,1292.00
2018-04-12T16:04:40.258Z,1320.00
2018-04-12T16:05:40.268Z,1344.00
2018-04-12T16:06:40.264Z,1392.00
2018-04-12T16:07:41.684Z,1456.00
2018-04-12T16:08:40.299Z,1520.00
2018-04-12T16:09:40.280Z,1544.00
2018-04-12T16:10:40.310Z,1520.00
2018-04-12T16:11:40.304Z,1460.00
2018-04-12T16:12:40.288Z,1372.00
2018-04-12T16:13:40.297Z,1268.00
2018-04-12T16:14:40.295Z,1168.00
2018-04-12T16:15:40.306Z,1088.00
2018-04-12T16:16:40.314Z,1032.00
2018-04-12T16:17:40.302Z,980.00
2018-04-12T16:18:40.342Z,912.00
2018-04-12T16:19:40.317Z,856.00
2018-04-12T16:20:40.408Z,812.00
2018-04-12T16:21:40.328Z,788.00
2018-04-12T16:22:40.328Z,776.00
2018-04-12T16:23:40.333Z,772.00
2018-04-12T16:24:40.395Z,768.00
2018-04-12T16:25:40.371Z,780.00
2018-04-12T16:26:40.367Z,796.00
2018-04-12T16:29:00.508Z,872.00
2018-04-12T16:29:40.370Z,908.00
2018-04-12T16:30:40.355Z,920.00
2018-04-12T16:31:40.402Z,912.00
2018-04-12T16:32:40.361Z,832.00
2018-04-12T16:33:40.366Z,700.00
2018-04-12T16:34:40.371Z,588.00
2018-04-12T16:35:40.390Z,508.00
2018-04-12T16:36:40.377Z,456.00
2018-04-12T16:37:40.389Z,424.00
2018-04-12T16:38:40.402Z,388.00
2018-04-12T16:39:40.432Z,344.00
2018-04-12T16:40:40.396Z,304.00
2018-04-12T16:41:40.386Z,272.00
2018-04-12T16:42:40.392Z,240.00
2018-04-12T16:43:40.434Z,216.00
2018-04-12T16:44:40.420Z,188.00
2018-04-12T16:45:40.469Z,172.00
2018-04-12T16:46:40.459Z,156.00
2018-04-12T16:47:40.552Z,148.00
2018-04-12T16:48:40.488Z,140.00
2018-04-12T16:49:40.431Z,132.00
2018-04-12T16:50:40.420Z,124.00
2018-04-12T16:51:40.432Z,120.00
2018-04-12T16:52:40.432Z,120.00
2018-04-12T16:53:40.441Z,108.00
2018-04-12T16:54:40.440Z,80.00
2018-04-12T16:55:40.432Z,68.00
2018-04-12T16:56:40.445Z,68.00
2018-04-12T16:57:40.451Z,68.00
2018-04-12T16:58:40.452Z,92.00
2018-04-12T16:59:40.457Z,116.00
2018-04-12T17:00:40.538Z,136.00
2018-04-12T17:01:40.467Z,148.00
2018-04-12T17:02:40.464Z,168.00
2018-04-12T17:03:40.492Z,212.00
2018-04-12T17:04:40.463Z,264.00
2018-04-12T17:05:40.469Z,320.00
2018-04-12T17:06:40.474Z,384.00
2018-04-12T17:07:40.479Z,456.00
2018-04-12T17:08:40.596Z,520.00
2018-04-12T17:09:40.486Z,560.00
2018-04-12T17:10:40.496Z,628.00
2018-04-12T17:11:40.482Z,684.00
2018-04-12T17:12:40.501Z,724.00
2018-04-12T17:13:40.505Z,776.00
2018-04-12T17:14:40.509Z,816.00
2018-04-12T17:15:40.503Z,844.00
2018-04-12T17:16:40.511Z,856.00
2018-04-12T17:17:40.513Z,864.00
2018-04-12T17:18:40.548Z,880.00
2018-04-12T17:19:40.521Z,844.00
2018-04-12T17:20:40.529Z,824.00
2018-04-12T17:21:40.535Z,812.00
2018-04-12T17:22:40.534Z,780.00
2018-04-12T17:23:40.525Z,732.00
2018-04-12T17:24:40.631Z,708.00
2018-04-12T17:25:40.531Z,700.00
2018-04-12T17:26:40.554Z,720.00
2018-04-12T17:27:40.551Z,736.00
2018-04-12T17:28:40.573Z,744.00
2018-04-12T17:29:41.362Z,736.00
2018-04-12T17:30:40.554Z,724.00
2018-04-12T17:31:41.368Z,708.00
2018-04-12T17:32:40.621Z,692.00
2018-04-12T17:33:40.576Z,684.00
2018-04-12T17:34:40.577Z,672.00
2018-04-12T17:35:40.591Z,664.00
2018-04-12T17:36:40.574Z,660.00
2018-04-12T17:37:40.574Z,648.00
2018-04-12T17:38:40.577Z,628.00
2018-04-12T17:39:40.583Z,604.00
2018-04-12T17:40:40.579Z,576.00
2018-04-12T17:41:40.596Z,556.00
2018-04-12T17:42:40.598Z,532.00
2018-04-12T17:43:40.596Z,504.00
2018-04-12T17:44:40.593Z,476.00
2018-04-12T17:45:40.601Z,436.00
2018-04-12T17:46:40.608Z,396.00
2018-04-12T17:47:40.616Z,364.00
2018-04-12T17:48:40.613Z,336.00
2018-04-12T17:49:40.616Z,320.00
2018-04-12T17:50:40.642Z,308.00
2018-04-12T17:51:40.630Z,296.00
2018-04-12T17:52:40.616Z,276.00
2018-04-12T17:53:40.628Z,276.00
2018-04-12T17:54:40.649Z,264.00
2018-04-12T17:55:40.629Z,268.00
2018-04-12T17:56:40.635Z,272.00
2018-04-12T17:57:40.635Z,280.00
2018-04-12T17:58:40.642Z,292.00
2018-04-12T17:59:40.651Z,292.00
2018-04-12T18:00:40.673Z,292.00
2018-04-12T18:01:40.657Z,288.00
2018-04-12T18:02:40.670Z,280.00
2018-04-12T18:03:40.664Z,264.00
2018-04-12T18:04:40.662Z,252.00
2018-04-12T18:05:40.658Z,240.00
2018-04-12T18:06:40.666Z,224.00
2018-04-12T18:07:40.663Z,212.00
2018-04-12T18:08:40.733Z,200.00
2018-04-12T18:09:40.680Z,188.00
2018-04-12T18:10:40.675Z,176.00
2018-04-12T18:11:40.683Z,164.00
2018-04-12T18:12:40.683Z,152.00
2018-04-12T18:13:40.683Z,140.00
2018-04-12T18:14:40.691Z,132.00
2018-04-12T18:15:40.709Z,120.00
2018-04-12T18:16:40.697Z,112.00
2018-04-12T18:17:40.704Z,104.00
2018-04-12T18:18:40.715Z,96.00
2018-04-12T18:19:40.714Z,88.00
2018-04-12T18:20:40.721Z,80.00
2018-04-12T18:21:40.709Z,72.00
2018-04-12T18:22:40.728Z,68.00
2018-04-12T18:23:40.717Z,60.00
2018-04-12T18:24:40.713Z,56.00
2018-04-12T18:25:40.736Z,52.00
2018-04-12T18:26:40.720Z,44.00
2018-04-12T18:27:40.731Z,40.00
2018-04-12T18:28:40.743Z,36.00
2018-04-12T18:29:40.727Z,32.00
2018-04-12T18:30:40.735Z,28.00
2018-04-12T18:31:40.734Z,24.00
2018-04-12T18:32:40.754Z,20.00
2018-04-12T18:33:40.750Z,20.00
2018-04-12T18:34:40.741Z,16.00
2018-04-12T18:35:40.768Z,16.00
2018-04-12T18:36:40.778Z,12.00
2018-04-12T18:37:40.766Z,12.00
2018-04-12T18:38:40.760Z,8.00
2018-04-12T18:39:40.763Z,8.00
2018-04-12T18:40:40.762Z,8.00
2018-04-12T18:41:40.769Z,8.00
2018-04-12T18:42:40.838Z,4.00
2018-04-12T18:43:41.233Z,4.00
2018-04-12T18:44:40.783Z,4.00
2018-04-12T18:45:40.779Z,0.00
2018-04-12T18:46:40.801Z,4.00
2018-04-12T18:47:40.778Z,4.00
2018-04-12T18:48:40.798Z,0.00
2018-04-12T18:49:40.824Z,0.00
2018-04-12T18:50:40.798Z,0.00
2018-04-12T18:51:40.793Z,0.00
2018-04-12T18:52:40.817Z,0.00
2018-04-12T18:53:40.809Z,0.00
2018-04-12T18:54:40.874Z,0.00
2018-04-12T18:55:40.806Z,0.00
2018-04-12T18:56:40.808Z,0.00
2018-04-12T18:57:40.813Z,0.00
2018-04-12T18:58:40.815Z,0.00
2018-04-12T18:59:40.817Z,0.00
2018-04-12T19:00:40.846Z,0.00
2018-04-12T19:01:40.841Z,0.00
2018-04-12T19:02:40.829Z,0.00
2018-04-12T19:03:40.838Z,0.00
2018-04-12T19:04:40.834Z,0.00
2018-04-12T19:05:40.839Z,0.00
2018-04-12T19:06:40.858Z,0.00
2018-04-12T19:07:40.850Z,0.00
2018-04-12T19:08:40.863Z,0.00
2018-04-12T19:09:40.920Z,0.00
2018-04-12T19:10:40.854Z,0.00
2018-04-12T19:11:40.855Z,0.00
2018-04-12T19:12:40.855Z,0.00
2018-04-12T19:13:40.893Z,0.00
2018-04-12T19:14:40.864Z,0.00
2018-04-12T19:15:40.873Z,0.00
2018-04-12T19:16:40.909Z,0.00
2018-04-12T19:17:40.879Z,0.00
2018-04-12T19:18:40.876Z,0.00
2018-04-12T19:19:40.878Z,0.00
2018-04-12T19:20:40.883Z,0.00
2018-04-12T19:21:40.892Z,0.00
2018-04-12T19:22:40.895Z,0.00
2018-04-12T19:23:40.916Z,0.00
2018-04-12T19:24:40.884Z,0.00
2018-04-12T19:25:40.893Z,0.00
2018-04-12T19:26:40.900Z,0.00
2018-04-12T19:27:40.920Z,0.00
2018-04-12T19:28:40.899Z,0.00
2018-04-12T19:29:40.906Z,0.00
2018-04-12T19:30:41.404Z,0.00
2018-04-12T19:31:40.912Z,0.00
2018-04-12T19:32:40.925Z,0.00
2018-04-12T19:33:40.912Z,0.00
2018-04-12T19:34:41.409Z,0.00
2018-04-12T19:35:40.932Z,0.00
2018-04-12T19:36:40.995Z,0.00
2018-04-12T19:37:40.948Z,0.00
2018-04-12T19:38:40.942Z,0.00
2018-04-12T19:39:40.933Z,0.00
2018-04-12T19:40:40.958Z,0.00
2018-04-12T19:41:40.990Z,0.00
2018-04-12T19:42:40.945Z,0.00
2018-04-12T19:43:40.950Z,0.00
2018-04-12T19:44:40.951Z,0.00
2018-04-12T19:45:40.955Z,0.00
2018-04-12T19:46:40.959Z,0.00
2018-04-12T19:47:41.010Z,0.00
2018-04-12T19:48:40.953Z,0.00
2018-04-12T19:49:42.133Z,0.00
2018-04-12T19:50:41.014Z,0.00
2018-04-12T19:51:40.982Z,0.00
2018-04-12T19:52:40.982Z,0.00
2018-04-12T19:53:40.969Z,0.00
2018-04-12T19:54:40.972Z,0.00
2018-04-12T19:55:40.987Z,0.00
2018-04-12T19:56:40.987Z,0.00
2018-04-12T19:57:41.915Z,0.00
2018-04-12T19:58:40.990Z,0.00
2018-04-12T19:59:41.009Z,0.00
2018-04-12T20:00:41.034Z,0.00
2018-04-12T20:01:41.045Z,0.00
2018-04-12T20:02:41.000Z,0.00